sensor_id;sensor_type;location;lat;lon;timestamp;P1;durP1;ratioP1;P2;durP2;ratioP2
20870;SDS011;10595;51.218;3.452;2023-05-10T00:00:13;38.57;;;16.20;;
20870;SDS011;10595;51.218;3.452;2023-05-10T00:02:39;36.60;;;16.67;;
20870;SDS011;10595;51.218;3.452;2023-05-10T00:05:05;32.40;;;16.63;;
20870;SDS011;10595;51.218;3.452;2023-05-10T00:07:32;35.37;;;17.60;;
20870;SDS011;10595;51.218;3.452;2023-05-10T00:09:58;36.13;;;19.03;;
20870;SDS011;10595;51.218;3.452;2023-05-10T00:12:24;39.73;;;19.73;;
20870;SDS011;10595;51.218;3.452;2023-05-10T00:14:50;40.80;;;19.57;;
20870;SDS011;10595;51.218;3.452;2023-05-10T00:17:16;41.63;;;20.87;;
20870;SDS011;10595;51.218;3.452;2023-05-10T00:19:42;41.57;;;20.37;;
20870;SDS011;10595;51.218;3.452;2023-05-10T00:22:08;41.77;;;21.10;;
20870;SDS011;10595;51.218;3.452;2023-05-10T00:24:34;43.93;;;21.60;;
20870;SDS011;10595;51.218;3.452;2023-05-10T00:27:00;51.20;;;23.37;;
20870;SDS011;10595;51.218;3.452;2023-05-10T00:29:26;45.67;;;22.63;;
20870;SDS011;10595;51.218;3.452;2023-05-10T00:31:53;48.37;;;23.80;;
20870;SDS011;10595;51.218;3.452;2023-05-10T00:34:19;47.90;;;23.00;;
20870;SDS011;10595;51.218;3.452;2023-05-10T00:36:45;49.23;;;22.77;;
20870;SDS011;10595;51.218;3.452;2023-05-10T00:39:11;54.20;;;23.57;;
20870;SDS011;10595;51.218;3.452;2023-05-10T00:41:37;51.30;;;24.87;;
20870;SDS011;10595;51.218;3.452;2023-05-10T00:44:03;52.90;;;23.63;;
20870;SDS011;10595;51.218;3.452;2023-05-10T00:46:29;50.63;;;22.87;;
20870;SDS011;10595;51.218;3.452;2023-05-10T00:48:55;54.97;;;23.60;;
20870;SDS011;10595;51.218;3.452;2023-05-10T00:51:22;51.43;;;23.53;;
20870;SDS011;10595;51.218;3.452;2023-05-10T00:53:48;56.03;;;25.87;;
20870;SDS011;10595;51.218;3.452;2023-05-10T00:56:16;54.27;;;25.10;;
20870;SDS011;10595;51.218;3.452;2023-05-10T00:58:42;55.97;;;25.43;;
20870;SDS011;10595;51.218;3.452;2023-05-10T01:01:08;66.93;;;27.97;;
20870;SDS011;10595;51.218;3.452;2023-05-10T01:03:35;60.47;;;27.63;;
20870;SDS011;10595;51.218;3.452;2023-05-10T01:06:02;64.47;;;25.87;;
20870;SDS011;10595;51.218;3.452;2023-05-10T01:08:28;59.83;;;26.07;;
20870;SDS011;10595;51.218;3.452;2023-05-10T01:10:54;62.33;;;26.77;;
20870;SDS011;10595;51.218;3.452;2023-05-10T01:13:39;63.70;;;27.57;;
20870;SDS011;10595;51.218;3.452;2023-05-10T01:16:07;59.97;;;25.60;;
20870;SDS011;10595;51.218;3.452;2023-05-10T01:18:34;61.93;;;25.80;;
20870;SDS011;10595;51.218;3.452;2023-05-10T01:21:23;59.87;;;25.33;;
20870;SDS011;10595;51.218;3.452;2023-05-10T01:30:34;58.33;;;23.57;;
20870;SDS011;10595;51.218;3.452;2023-05-10T01:35:04;59.73;;;24.10;;
20870;SDS011;10595;51.218;3.452;2023-05-10T01:40:15;60.27;;;24.07;;
20870;SDS011;10595;51.218;3.452;2023-05-10T01:42:47;61.67;;;24.37;;
20870;SDS011;10595;51.218;3.452;2023-05-10T01:45:27;61.77;;;25.17;;
20870;SDS011;10595;51.218;3.452;2023-05-10T01:48:05;60.73;;;23.30;;
20870;SDS011;10595;51.218;3.452;2023-05-10T01:50:32;56.43;;;22.53;;
20870;SDS011;10595;51.218;3.452;2023-05-10T01:52:59;51.83;;;22.73;;
20870;SDS011;10595;51.218;3.452;2023-05-10T01:55:27;55.90;;;21.47;;
20870;SDS011;10595;51.218;3.452;2023-05-10T01:58:04;49.80;;;21.43;;
20870;SDS011;10595;51.218;3.452;2023-05-10T02:00:31;47.10;;;19.73;;
20870;SDS011;10595;51.218;3.452;2023-05-10T02:02:59;49.43;;;20.73;;
20870;SDS011;10595;51.218;3.452;2023-05-10T02:05:25;45.30;;;19.73;;
20870;SDS011;10595;51.218;3.452;2023-05-10T02:07:52;50.93;;;20.77;;
20870;SDS011;10595;51.218;3.452;2023-05-10T02:10:18;49.23;;;20.70;;
20870;SDS011;10595;51.218;3.452;2023-05-10T02:12:45;51.17;;;21.47;;
20870;SDS011;10595;51.218;3.452;2023-05-10T02:15:14;56.17;;;22.43;;
20870;SDS011;10595;51.218;3.452;2023-05-10T02:17:40;48.37;;;21.20;;
20870;SDS011;10595;51.218;3.452;2023-05-10T02:20:08;50.87;;;21.30;;
20870;SDS011;10595;51.218;3.452;2023-05-10T02:22:34;52.33;;;22.20;;
20870;SDS011;10595;51.218;3.452;2023-05-10T02:25:01;52.53;;;21.27;;
20870;SDS011;10595;51.218;3.452;2023-05-10T02:27:28;53.27;;;22.03;;
20870;SDS011;10595;51.218;3.452;2023-05-10T02:29:55;47.27;;;21.23;;
20870;SDS011;10595;51.218;3.452;2023-05-10T02:32:22;50.13;;;22.47;;
20870;SDS011;10595;51.218;3.452;2023-05-10T02:34:49;49.73;;;21.97;;
20870;SDS011;10595;51.218;3.452;2023-05-10T02:37:18;49.37;;;21.50;;
20870;SDS011;10595;51.218;3.452;2023-05-10T02:39:45;49.43;;;22.07;;
20870;SDS011;10595;51.218;3.452;2023-05-10T02:42:15;47.17;;;21.17;;
20870;SDS011;10595;51.218;3.452;2023-05-10T02:44:42;48.47;;;22.40;;
20870;SDS011;10595;51.218;3.452;2023-05-10T02:47:08;45.63;;;21.43;;
20870;SDS011;10595;51.218;3.452;2023-05-10T02:49:35;44.57;;;21.87;;
20870;SDS011;10595;51.218;3.452;2023-05-10T02:52:01;44.27;;;20.90;;
20870;SDS011;10595;51.218;3.452;2023-05-10T02:54:30;44.53;;;21.10;;
20870;SDS011;10595;51.218;3.452;2023-05-10T02:56:58;44.13;;;21.97;;
20870;SDS011;10595;51.218;3.452;2023-05-10T02:59:27;41.10;;;19.70;;
20870;SDS011;10595;51.218;3.452;2023-05-10T03:01:53;43.30;;;20.47;;
20870;SDS011;10595;51.218;3.452;2023-05-10T03:04:19;44.90;;;22.10;;
20870;SDS011;10595;51.218;3.452;2023-05-10T03:06:45;45.27;;;21.37;;
20870;SDS011;10595;51.218;3.452;2023-05-10T03:09:12;44.93;;;21.57;;
20870;SDS011;10595;51.218;3.452;2023-05-10T03:16:56;49.10;;;22.93;;
20870;SDS011;10595;51.218;3.452;2023-05-10T03:21:53;45.40;;;21.27;;
20870;SDS011;10595;51.218;3.452;2023-05-10T03:24:21;55.07;;;23.27;;
20870;SDS011;10595;51.218;3.452;2023-05-10T03:26:48;46.40;;;23.27;;
20870;SDS011;10595;51.218;3.452;2023-05-10T03:29:15;47.53;;;22.07;;
20870;SDS011;10595;51.218;3.452;2023-05-10T03:31:41;42.60;;;21.80;;
20870;SDS011;10595;51.218;3.452;2023-05-10T03:34:07;44.33;;;21.67;;
20870;SDS011;10595;51.218;3.452;2023-05-10T03:36:33;42.07;;;21.87;;
20870;SDS011;10595;51.218;3.452;2023-05-10T03:39:00;41.80;;;20.33;;
20870;SDS011;10595;51.218;3.452;2023-05-10T03:41:26;40.53;;;20.87;;
20870;SDS011;10595;51.218;3.452;2023-05-10T03:43:52;37.67;;;20.80;;
20870;SDS011;10595;51.218;3.452;2023-05-10T03:46:18;39.40;;;20.63;;
20870;SDS011;10595;51.218;3.452;2023-05-10T03:48:44;37.17;;;20.53;;
20870;SDS011;10595;51.218;3.452;2023-05-10T03:51:10;38.40;;;21.33;;
20870;SDS011;10595;51.218;3.452;2023-05-10T03:53:36;39.73;;;21.10;;
20870;SDS011;10595;51.218;3.452;2023-05-10T03:56:02;38.23;;;21.53;;
20870;SDS011;10595;51.218;3.452;2023-05-10T03:58:28;35.40;;;19.50;;
20870;SDS011;10595;51.218;3.452;2023-05-10T04:00:54;34.17;;;20.37;;
20870;SDS011;10595;51.218;3.452;2023-05-10T04:03:20;35.33;;;19.03;;
20870;SDS011;10595;51.218;3.452;2023-05-10T04:05:46;34.40;;;20.10;;
20870;SDS011;10595;51.218;3.452;2023-05-10T04:08:12;34.13;;;18.83;;
20870;SDS011;10595;51.218;3.452;2023-05-10T04:10:39;30.13;;;17.23;;
20870;SDS011;10595;51.218;3.452;2023-05-10T04:13:05;29.57;;;17.83;;
20870;SDS011;10595;51.218;3.452;2023-05-10T04:15:31;31.03;;;18.80;;
20870;SDS011;10595;51.218;3.452;2023-05-10T04:17:57;33.33;;;18.70;;
20870;SDS011;10595;51.218;3.452;2023-05-10T04:20:23;28.50;;;17.73;;
20870;SDS011;10595;51.218;3.452;2023-05-10T04:22:50;32.40;;;19.77;;
20870;SDS011;10595;51.218;3.452;2023-05-10T04:25:16;34.20;;;19.37;;
20870;SDS011;10595;51.218;3.452;2023-05-10T04:27:42;33.20;;;18.73;;
20870;SDS011;10595;51.218;3.452;2023-05-10T04:30:08;34.17;;;19.07;;
20870;SDS011;10595;51.218;3.452;2023-05-10T04:32:34;35.90;;;18.97;;
20870;SDS011;10595;51.218;3.452;2023-05-10T04:35:01;36.43;;;20.50;;
20870;SDS011;10595;51.218;3.452;2023-05-10T04:37:28;36.30;;;19.43;;
20870;SDS011;10595;51.218;3.452;2023-05-10T04:39:54;36.80;;;19.97;;
20870;SDS011;10595;51.218;3.452;2023-05-10T04:42:20;33.70;;;20.20;;
20870;SDS011;10595;51.218;3.452;2023-05-10T04:44:46;35.30;;;20.30;;
20870;SDS011;10595;51.218;3.452;2023-05-10T04:47:12;33.80;;;20.30;;
20870;SDS011;10595;51.218;3.452;2023-05-10T04:49:38;34.23;;;19.10;;
20870;SDS011;10595;51.218;3.452;2023-05-10T04:52:04;33.60;;;19.47;;
20870;SDS011;10595;51.218;3.452;2023-05-10T04:54:30;32.50;;;18.13;;
20870;SDS011;10595;51.218;3.452;2023-05-10T04:56:56;32.40;;;19.30;;
20870;SDS011;10595;51.218;3.452;2023-05-10T04:59:22;32.37;;;18.37;;
20870;SDS011;10595;51.218;3.452;2023-05-10T05:01:48;32.10;;;19.33;;
20870;SDS011;10595;51.218;3.452;2023-05-10T05:04:14;35.87;;;19.67;;
20870;SDS011;10595;51.218;3.452;2023-05-10T05:06:40;33.90;;;20.07;;
20870;SDS011;10595;51.218;3.452;2023-05-10T05:09:06;32.70;;;20.33;;
20870;SDS011;10595;51.218;3.452;2023-05-10T05:11:32;34.00;;;19.93;;
20870;SDS011;10595;51.218;3.452;2023-05-10T05:13:58;34.77;;;20.00;;
20870;SDS011;10595;51.218;3.452;2023-05-10T05:16:24;31.47;;;19.23;;
20870;SDS011;10595;51.218;3.452;2023-05-10T05:18:51;33.87;;;18.87;;
20870;SDS011;10595;51.218;3.452;2023-05-10T05:21:17;35.20;;;19.83;;
20870;SDS011;10595;51.218;3.452;2023-05-10T05:23:44;36.17;;;19.23;;
20870;SDS011;10595;51.218;3.452;2023-05-10T05:26:10;32.10;;;18.23;;
20870;SDS011;10595;51.218;3.452;2023-05-10T05:28:38;33.53;;;19.13;;
20870;SDS011;10595;51.218;3.452;2023-05-10T05:31:05;35.43;;;19.90;;
20870;SDS011;10595;51.218;3.452;2023-05-10T05:33:31;34.70;;;20.50;;
20870;SDS011;10595;51.218;3.452;2023-05-10T05:36:00;36.27;;;20.10;;
20870;SDS011;10595;51.218;3.452;2023-05-10T05:38:27;38.70;;;21.60;;
20870;SDS011;10595;51.218;3.452;2023-05-10T05:40:53;33.77;;;19.77;;
20870;SDS011;10595;51.218;3.452;2023-05-10T05:43:19;33.03;;;19.90;;
20870;SDS011;10595;51.218;3.452;2023-05-10T05:45:45;31.17;;;18.57;;
20870;SDS011;10595;51.218;3.452;2023-05-10T05:48:11;30.13;;;17.87;;
20870;SDS011;10595;51.218;3.452;2023-05-10T05:50:37;57.17;;;21.23;;
20870;SDS011;10595;51.218;3.452;2023-05-10T05:53:03;30.37;;;17.33;;
20870;SDS011;10595;51.218;3.452;2023-05-10T05:55:29;25.20;;;15.90;;
20870;SDS011;10595;51.218;3.452;2023-05-10T05:57:56;27.27;;;15.63;;
20870;SDS011;10595;51.218;3.452;2023-05-10T06:00:22;25.30;;;15.07;;
20870;SDS011;10595;51.218;3.452;2023-05-10T06:02:48;24.10;;;13.43;;
20870;SDS011;10595;51.218;3.452;2023-05-10T06:05:14;25.07;;;13.93;;
20870;SDS011;10595;51.218;3.452;2023-05-10T06:07:40;20.53;;;12.60;;
20870;SDS011;10595;51.218;3.452;2023-05-10T06:10:10;21.80;;;13.10;;
20870;SDS011;10595;51.218;3.452;2023-05-10T06:12:36;19.33;;;11.80;;
20870;SDS011;10595;51.218;3.452;2023-05-10T06:15:02;20.20;;;11.60;;
20870;SDS011;10595;51.218;3.452;2023-05-10T06:17:28;21.90;;;12.90;;
20870;SDS011;10595;51.218;3.452;2023-05-10T06:19:54;21.73;;;12.93;;
20870;SDS011;10595;51.218;3.452;2023-05-10T06:22:20;22.03;;;12.73;;
20870;SDS011;10595;51.218;3.452;2023-05-10T06:24:47;21.47;;;11.80;;
20870;SDS011;10595;51.218;3.452;2023-05-10T06:27:13;55.30;;;16.70;;
20870;SDS011;10595;51.218;3.452;2023-05-10T06:29:40;20.30;;;11.20;;
20870;SDS011;10595;51.218;3.452;2023-05-10T06:32:06;18.73;;;11.50;;
20870;SDS011;10595;51.218;3.452;2023-05-10T06:34:32;17.67;;;10.80;;
20870;SDS011;10595;51.218;3.452;2023-05-10T06:36:58;20.70;;;11.00;;
20870;SDS011;10595;51.218;3.452;2023-05-10T06:39:24;28.33;;;11.93;;
20870;SDS011;10595;51.218;3.452;2023-05-10T06:41:50;39.07;;;13.37;;
20870;SDS011;10595;51.218;3.452;2023-05-10T06:44:16;14.60;;;9.67;;
20870;SDS011;10595;51.218;3.452;2023-05-10T06:46:42;16.07;;;10.23;;
20870;SDS011;10595;51.218;3.452;2023-05-10T06:49:08;15.83;;;10.03;;
20870;SDS011;10595;51.218;3.452;2023-05-10T06:51:34;17.47;;;10.40;;
20870;SDS011;10595;51.218;3.452;2023-05-10T06:54:00;14.90;;;9.27;;
20870;SDS011;10595;51.218;3.452;2023-05-10T06:56:26;14.43;;;9.43;;
20870;SDS011;10595;51.218;3.452;2023-05-10T06:58:52;12.47;;;8.93;;
20870;SDS011;10595;51.218;3.452;2023-05-10T07:01:18;13.77;;;8.73;;
20870;SDS011;10595;51.218;3.452;2023-05-10T07:03:44;13.60;;;8.17;;
20870;SDS011;10595;51.218;3.452;2023-05-10T07:06:10;11.37;;;8.07;;
20870;SDS011;10595;51.218;3.452;2023-05-10T07:08:36;10.93;;;7.53;;
20870;SDS011;10595;51.218;3.452;2023-05-10T07:11:03;8.40;;;6.30;;
20870;SDS011;10595;51.218;3.452;2023-05-10T07:13:30;9.47;;;6.20;;
20870;SDS011;10595;51.218;3.452;2023-05-10T07:15:56;7.63;;;5.73;;
20870;SDS011;10595;51.218;3.452;2023-05-10T07:18:23;6.30;;;4.97;;
20870;SDS011;10595;51.218;3.452;2023-05-10T07:20:49;7.17;;;4.80;;
20870;SDS011;10595;51.218;3.452;2023-05-10T07:23:15;6.90;;;3.40;;
20870;SDS011;10595;51.218;3.452;2023-05-10T07:25:44;7.20;;;5.00;;
20870;SDS011;10595;51.218;3.452;2023-05-10T07:28:10;6.80;;;5.27;;
20870;SDS011;10595;51.218;3.452;2023-05-10T07:30:36;7.40;;;4.80;;
20870;SDS011;10595;51.218;3.452;2023-05-10T07:33:02;8.83;;;5.30;;
20870;SDS011;10595;51.218;3.452;2023-05-10T07:35:28;10.33;;;6.10;;
20870;SDS011;10595;51.218;3.452;2023-05-10T07:37:54;8.90;;;6.43;;
20870;SDS011;10595;51.218;3.452;2023-05-10T07:40:20;10.20;;;6.30;;
20870;SDS011;10595;51.218;3.452;2023-05-10T07:42:46;10.63;;;7.03;;
20870;SDS011;10595;51.218;3.452;2023-05-10T07:45:12;9.77;;;6.80;;
20870;SDS011;10595;51.218;3.452;2023-05-10T07:47:38;12.20;;;8.40;;
20870;SDS011;10595;51.218;3.452;2023-05-10T07:50:04;15.57;;;9.27;;
20870;SDS011;10595;51.218;3.452;2023-05-10T07:52:30;14.10;;;8.93;;
20870;SDS011;10595;51.218;3.452;2023-05-10T07:54:56;11.97;;;8.00;;
20870;SDS011;10595;51.218;3.452;2023-05-10T07:57:22;12.17;;;8.60;;
20870;SDS011;10595;51.218;3.452;2023-05-10T07:59:48;16.17;;;9.30;;
20870;SDS011;10595;51.218;3.452;2023-05-10T08:02:15;15.17;;;9.37;;
20870;SDS011;10595;51.218;3.452;2023-05-10T08:04:41;15.63;;;9.00;;
20870;SDS011;10595;51.218;3.452;2023-05-10T08:07:07;14.23;;;9.47;;
20870;SDS011;10595;51.218;3.452;2023-05-10T08:09:33;12.67;;;9.63;;
20870;SDS011;10595;51.218;3.452;2023-05-10T08:11:59;14.57;;;8.80;;
20870;SDS011;10595;51.218;3.452;2023-05-10T08:14:25;10.97;;;8.83;;
20870;SDS011;10595;51.218;3.452;2023-05-10T08:16:51;13.13;;;7.53;;
20870;SDS011;10595;51.218;3.452;2023-05-10T08:19:17;11.83;;;7.50;;
20870;SDS011;10595;51.218;3.452;2023-05-10T08:21:45;13.23;;;8.53;;
20870;SDS011;10595;51.218;3.452;2023-05-10T08:24:11;11.57;;;7.93;;
20870;SDS011;10595;51.218;3.452;2023-05-10T08:26:37;12.40;;;7.60;;
20870;SDS011;10595;51.218;3.452;2023-05-10T08:29:03;9.43;;;6.63;;
20870;SDS011;10595;51.218;3.452;2023-05-10T08:31:29;9.90;;;7.30;;
20870;SDS011;10595;51.218;3.452;2023-05-10T08:33:55;11.10;;;6.80;;
20870;SDS011;10595;51.218;3.452;2023-05-10T08:36:21;9.57;;;6.10;;
20870;SDS011;10595;51.218;3.452;2023-05-10T08:38:52;9.83;;;6.30;;
20870;SDS011;10595;51.218;3.452;2023-05-10T08:41:20;7.13;;;6.00;;
20870;SDS011;10595;51.218;3.452;2023-05-10T08:43:49;7.37;;;5.67;;
20870;SDS011;10595;51.218;3.452;2023-05-10T08:46:16;10.27;;;6.13;;
20870;SDS011;10595;51.218;3.452;2023-05-10T08:48:43;7.40;;;5.87;;
20870;SDS011;10595;51.218;3.452;2023-05-10T08:51:09;10.20;;;6.50;;
20870;SDS011;10595;51.218;3.452;2023-05-10T08:53:37;8.23;;;4.57;;
20870;SDS011;10595;51.218;3.452;2023-05-10T08:56:03;5.27;;;3.93;;
20870;SDS011;10595;51.218;3.452;2023-05-10T08:58:29;6.50;;;4.27;;
20870;SDS011;10595;51.218;3.452;2023-05-10T09:00:55;5.17;;;3.80;;
20870;SDS011;10595;51.218;3.452;2023-05-10T09:03:22;4.80;;;3.30;;
20870;SDS011;10595;51.218;3.452;2023-05-10T09:05:48;4.73;;;3.83;;
20870;SDS011;10595;51.218;3.452;2023-05-10T09:08:14;6.07;;;4.10;;
20870;SDS011;10595;51.218;3.452;2023-05-10T09:10:44;10.40;;;5.33;;
20870;SDS011;10595;51.218;3.452;2023-05-10T09:13:12;7.23;;;5.07;;
20870;SDS011;10595;51.218;3.452;2023-05-10T09:15:40;6.53;;;4.93;;
20870;SDS011;10595;51.218;3.452;2023-05-10T09:18:06;7.77;;;5.70;;
20870;SDS011;10595;51.218;3.452;2023-05-10T09:20:32;8.97;;;6.60;;
20870;SDS011;10595;51.218;3.452;2023-05-10T09:22:58;8.17;;;6.67;;
20870;SDS011;10595;51.218;3.452;2023-05-10T09:25:24;10.37;;;6.80;;
20870;SDS011;10595;51.218;3.452;2023-05-10T09:27:50;10.60;;;7.37;;
20870;SDS011;10595;51.218;3.452;2023-05-10T09:30:26;7.83;;;6.13;;
20870;SDS011;10595;51.218;3.452;2023-05-10T09:32:53;16.27;;;6.50;;
20870;SDS011;10595;51.218;3.452;2023-05-10T09:35:20;9.63;;;6.60;;
20870;SDS011;10595;51.218;3.452;2023-05-10T09:37:47;8.37;;;6.37;;
20870;SDS011;10595;51.218;3.452;2023-05-10T09:40:14;9.43;;;6.93;;
20870;SDS011;10595;51.218;3.452;2023-05-10T09:42:42;8.80;;;6.93;;
20870;SDS011;10595;51.218;3.452;2023-05-10T09:45:08;9.37;;;6.53;;
20870;SDS011;10595;51.218;3.452;2023-05-10T09:47:34;10.63;;;7.00;;
20870;SDS011;10595;51.218;3.452;2023-05-10T09:50:01;11.70;;;8.03;;
20870;SDS011;10595;51.218;3.452;2023-05-10T09:52:35;10.63;;;8.30;;
20870;SDS011;10595;51.218;3.452;2023-05-10T09:55:11;10.47;;;8.37;;
20870;SDS011;10595;51.218;3.452;2023-05-10T09:57:37;12.67;;;9.17;;
20870;SDS011;10595;51.218;3.452;2023-05-10T10:00:05;12.00;;;8.60;;
20870;SDS011;10595;51.218;3.452;2023-05-10T10:02:31;13.43;;;9.63;;
20870;SDS011;10595;51.218;3.452;2023-05-10T10:04:58;15.07;;;9.83;;
20870;SDS011;10595;51.218;3.452;2023-05-10T10:07:26;15.63;;;10.27;;
20870;SDS011;10595;51.218;3.452;2023-05-10T10:09:52;16.17;;;10.13;;
20870;SDS011;10595;51.218;3.452;2023-05-10T10:12:19;14.63;;;9.77;;
20870;SDS011;10595;51.218;3.452;2023-05-10T10:14:48;13.87;;;9.87;;
20870;SDS011;10595;51.218;3.452;2023-05-10T10:17:15;14.17;;;9.83;;
20870;SDS011;10595;51.218;3.452;2023-05-10T10:19:41;15.40;;;10.07;;
20870;SDS011;10595;51.218;3.452;2023-05-10T10:22:08;18.20;;;10.90;;
20870;SDS011;10595;51.218;3.452;2023-05-10T10:24:36;13.37;;;7.83;;
20870;SDS011;10595;51.218;3.452;2023-05-10T10:27:07;11.23;;;7.50;;
20870;SDS011;10595;51.218;3.452;2023-05-10T10:32:09;12.37;;;8.73;;
20870;SDS011;10595;51.218;3.452;2023-05-10T10:34:36;14.10;;;8.57;;
20870;SDS011;10595;51.218;3.452;2023-05-10T10:37:05;13.07;;;9.37;;
20870;SDS011;10595;51.218;3.452;2023-05-10T10:39:31;13.93;;;9.13;;
20870;SDS011;10595;51.218;3.452;2023-05-10T10:41:58;13.57;;;9.67;;
20870;SDS011;10595;51.218;3.452;2023-05-10T10:44:25;13.93;;;10.27;;
20870;SDS011;10595;51.218;3.452;2023-05-10T10:49:38;14.10;;;9.33;;
20870;SDS011;10595;51.218;3.452;2023-05-10T10:54:52;17.00;;;10.57;;
20870;SDS011;10595;51.218;3.452;2023-05-10T10:57:19;15.00;;;10.53;;
20870;SDS011;10595;51.218;3.452;2023-05-10T10:59:46;15.03;;;9.43;;
20870;SDS011;10595;51.218;3.452;2023-05-10T11:04:57;16.37;;;9.73;;
20870;SDS011;10595;51.218;3.452;2023-05-10T11:07:24;16.30;;;10.13;;
20870;SDS011;10595;51.218;3.452;2023-05-10T11:09:50;15.73;;;8.83;;
20870;SDS011;10595;51.218;3.452;2023-05-10T11:12:16;11.20;;;7.77;;
20870;SDS011;10595;51.218;3.452;2023-05-10T11:14:42;12.10;;;7.17;;
20870;SDS011;10595;51.218;3.452;2023-05-10T11:20:06;13.00;;;8.30;;
20870;SDS011;10595;51.218;3.452;2023-05-10T11:22:48;15.00;;;7.73;;
20870;SDS011;10595;51.218;3.452;2023-05-10T11:25:16;11.27;;;7.60;;
20870;SDS011;10595;51.218;3.452;2023-05-10T11:27:42;14.70;;;8.53;;
20870;SDS011;10595;51.218;3.452;2023-05-10T11:30:09;15.10;;;7.97;;
20870;SDS011;10595;51.218;3.452;2023-05-10T11:32:39;13.23;;;8.27;;
20870;SDS011;10595;51.218;3.452;2023-05-10T11:35:06;12.73;;;7.70;;
20870;SDS011;10595;51.218;3.452;2023-05-10T11:37:35;14.47;;;8.67;;
20870;SDS011;10595;51.218;3.452;2023-05-10T11:40:03;12.07;;;7.60;;
20870;SDS011;10595;51.218;3.452;2023-05-10T11:42:29;15.90;;;7.50;;
20870;SDS011;10595;51.218;3.452;2023-05-10T11:44:55;11.43;;;7.90;;
20870;SDS011;10595;51.218;3.452;2023-05-10T11:47:21;12.93;;;7.50;;
20870;SDS011;10595;51.218;3.452;2023-05-10T11:49:47;16.00;;;7.97;;
20870;SDS011;10595;51.218;3.452;2023-05-10T11:52:14;14.97;;;7.77;;
20870;SDS011;10595;51.218;3.452;2023-05-10T11:54:52;15.43;;;7.70;;
20870;SDS011;10595;51.218;3.452;2023-05-10T11:57:19;13.90;;;8.00;;
20870;SDS011;10595;51.218;3.452;2023-05-10T11:59:46;22.70;;;8.10;;
20870;SDS011;10595;51.218;3.452;2023-05-10T12:02:13;13.87;;;7.33;;
20870;SDS011;10595;51.218;3.452;2023-05-10T12:04:39;10.77;;;6.93;;
20870;SDS011;10595;51.218;3.452;2023-05-10T12:07:05;12.87;;;7.73;;
20870;SDS011;10595;51.218;3.452;2023-05-10T12:09:31;14.53;;;8.20;;
20870;SDS011;10595;51.218;3.452;2023-05-10T12:11:57;15.93;;;7.70;;
20870;SDS011;10595;51.218;3.452;2023-05-10T12:14:23;16.97;;;8.00;;
20870;SDS011;10595;51.218;3.452;2023-05-10T12:16:49;16.83;;;7.37;;
20870;SDS011;10595;51.218;3.452;2023-05-10T12:19:18;15.83;;;7.20;;
20870;SDS011;10595;51.218;3.452;2023-05-10T12:21:47;17.63;;;7.97;;
20870;SDS011;10595;51.218;3.452;2023-05-10T12:24:13;13.97;;;7.73;;
20870;SDS011;10595;51.218;3.452;2023-05-10T12:26:42;16.73;;;7.83;;
20870;SDS011;10595;51.218;3.452;2023-05-10T12:29:12;20.63;;;9.10;;
20870;SDS011;10595;51.218;3.452;2023-05-10T12:34:34;13.73;;;6.40;;
20870;SDS011;10595;51.218;3.452;2023-05-10T12:37:04;12.20;;;7.17;;
20870;SDS011;10595;51.218;3.452;2023-05-10T12:39:40;13.03;;;6.80;;
20870;SDS011;10595;51.218;3.452;2023-05-10T12:42:06;11.70;;;6.93;;
20870;SDS011;10595;51.218;3.452;2023-05-10T12:44:32;13.73;;;7.53;;
20870;SDS011;10595;51.218;3.452;2023-05-10T12:46:58;16.80;;;8.40;;
20870;SDS011;10595;51.218;3.452;2023-05-10T12:49:24;15.03;;;8.10;;
20870;SDS011;10595;51.218;3.452;2023-05-10T12:51:50;15.90;;;6.83;;
20870;SDS011;10595;51.218;3.452;2023-05-10T12:54:16;16.47;;;7.83;;
20870;SDS011;10595;51.218;3.452;2023-05-10T12:56:42;21.83;;;9.67;;
20870;SDS011;10595;51.218;3.452;2023-05-10T12:59:08;18.93;;;8.10;;
20870;SDS011;10595;51.218;3.452;2023-05-10T13:01:34;14.30;;;8.00;;
20870;SDS011;10595;51.218;3.452;2023-05-10T13:04:00;18.67;;;8.13;;
20870;SDS011;10595;51.218;3.452;2023-05-10T13:06:26;19.47;;;7.77;;
20870;SDS011;10595;51.218;3.452;2023-05-10T13:08:52;19.10;;;8.13;;
20870;SDS011;10595;51.218;3.452;2023-05-10T13:11:18;14.40;;;8.07;;
20870;SDS011;10595;51.218;3.452;2023-05-10T13:13:46;15.53;;;7.47;;
20870;SDS011;10595;51.218;3.452;2023-05-10T13:16:12;18.03;;;7.57;;
20870;SDS011;10595;51.218;3.452;2023-05-10T13:18:38;13.03;;;6.87;;
20870;SDS011;10595;51.218;3.452;2023-05-10T13:21:04;11.67;;;6.50;;
20870;SDS011;10595;51.218;3.452;2023-05-10T13:23:30;15.67;;;6.80;;
20870;SDS011;10595;51.218;3.452;2023-05-10T13:25:56;11.60;;;5.90;;
20870;SDS011;10595;51.218;3.452;2023-05-10T13:28:22;12.30;;;6.23;;
20870;SDS011;10595;51.218;3.452;2023-05-10T13:30:48;14.53;;;6.37;;
20870;SDS011;10595;51.218;3.452;2023-05-10T13:33:14;10.60;;;5.93;;
20870;SDS011;10595;51.218;3.452;2023-05-10T13:35:40;15.17;;;5.87;;
20870;SDS011;10595;51.218;3.452;2023-05-10T13:38:06;13.40;;;5.63;;
20870;SDS011;10595;51.218;3.452;2023-05-10T13:40:33;12.83;;;6.00;;
20870;SDS011;10595;51.218;3.452;2023-05-10T13:42:59;20.67;;;7.00;;
20870;SDS011;10595;51.218;3.452;2023-05-10T13:45:25;13.47;;;6.00;;
20870;SDS011;10595;51.218;3.452;2023-05-10T13:47:51;13.33;;;5.27;;
20870;SDS011;10595;51.218;3.452;2023-05-10T13:50:17;12.47;;;6.47;;
20870;SDS011;10595;51.218;3.452;2023-05-10T13:52:43;15.13;;;5.60;;
20870;SDS011;10595;51.218;3.452;2023-05-10T13:55:09;11.93;;;5.47;;
20870;SDS011;10595;51.218;3.452;2023-05-10T13:57:38;14.07;;;5.70;;
20870;SDS011;10595;51.218;3.452;2023-05-10T14:00:04;11.20;;;5.10;;
20870;SDS011;10595;51.218;3.452;2023-05-10T14:02:30;17.63;;;5.87;;
20870;SDS011;10595;51.218;3.452;2023-05-10T14:04:56;13.17;;;5.80;;
20870;SDS011;10595;51.218;3.452;2023-05-10T14:07:22;14.00;;;5.23;;
20870;SDS011;10595;51.218;3.452;2023-05-10T14:09:48;32.50;;;8.50;;
20870;SDS011;10595;51.218;3.452;2023-05-10T14:12:15;12.70;;;5.20;;
20870;SDS011;10595;51.218;3.452;2023-05-10T14:14:41;13.23;;;5.67;;
20870;SDS011;10595;51.218;3.452;2023-05-10T14:17:07;16.53;;;5.17;;
20870;SDS011;10595;51.218;3.452;2023-05-10T14:19:33;12.63;;;4.60;;
20870;SDS011;10595;51.218;3.452;2023-05-10T14:21:59;12.73;;;4.63;;
20870;SDS011;10595;51.218;3.452;2023-05-10T14:24:25;10.43;;;4.50;;
20870;SDS011;10595;51.218;3.452;2023-05-10T14:26:51;10.67;;;4.90;;
20870;SDS011;10595;51.218;3.452;2023-05-10T14:29:20;10.47;;;4.47;;
20870;SDS011;10595;51.218;3.452;2023-05-10T14:31:47;9.57;;;4.30;;
20870;SDS011;10595;51.218;3.452;2023-05-10T14:34:13;11.57;;;4.90;;
20870;SDS011;10595;51.218;3.452;2023-05-10T14:36:39;12.03;;;5.17;;
20870;SDS011;10595;51.218;3.452;2023-05-10T14:39:05;12.00;;;4.70;;
20870;SDS011;10595;51.218;3.452;2023-05-10T14:41:31;12.20;;;5.00;;
20870;SDS011;10595;51.218;3.452;2023-05-10T14:43:57;11.23;;;4.70;;
20870;SDS011;10595;51.218;3.452;2023-05-10T14:46:23;10.73;;;5.80;;
20870;SDS011;10595;51.218;3.452;2023-05-10T14:48:49;14.70;;;5.97;;
20870;SDS011;10595;51.218;3.452;2023-05-10T14:51:15;12.27;;;5.13;;
20870;SDS011;10595;51.218;3.452;2023-05-10T14:53:42;10.67;;;4.77;;
20870;SDS011;10595;51.218;3.452;2023-05-10T14:56:08;13.47;;;4.87;;
20870;SDS011;10595;51.218;3.452;2023-05-10T14:58:34;10.47;;;4.27;;
20870;SDS011;10595;51.218;3.452;2023-05-10T15:01:00;6.93;;;3.50;;
20870;SDS011;10595;51.218;3.452;2023-05-10T15:03:26;10.20;;;3.60;;